sensor_id;sensor_type;location;lat;lon;timestamp;P1;durP1;ratioP1;P2;durP2;ratioP2
28547;SDS011;15750;49.600;8.746;2022-09-01T00:00:17;3.45;;;3.15;;
28547;SDS011;15750;49.600;8.746;2022-09-01T00:03:05;3.15;;;2.95;;
28547;SDS011;15750;49.600;8.746;2022-09-01T00:05:54;2.97;;;2.78;;
28547;SDS011;15750;49.600;8.746;2022-09-01T00:08:42;2.95;;;2.75;;
28547;SDS011;15750;49.600;8.746;2022-09-01T00:11:30;3.22;;;2.97;;
28547;SDS011;15750;49.600;8.746;2022-09-01T00:14:19;3.00;;;2.78;;
28547;SDS011;15750;49.600;8.746;2022-09-01T00:17:14;3.08;;;2.75;;
28547;SDS011;15750;49.600;8.746;2022-09-01T00:20:02;3.83;;;2.78;;
28547;SDS011;15750;49.600;8.746;2022-09-01T00:22:50;3.92;;;3.00;;
28547;SDS011;15750;49.600;8.746;2022-09-01T00:25:37;3.28;;;2.92;;
28547;SDS011;15750;49.600;8.746;2022-09-01T00:28:26;3.78;;;3.13;;
28547;SDS011;15750;49.600;8.746;2022-09-01T00:31:14;3.30;;;3.00;;
28547;SDS011;15750;49.600;8.746;2022-09-01T00:34:04;3.00;;;2.80;;
28547;SDS011;15750;49.600;8.746;2022-09-01T00:36:51;3.10;;;2.78;;
28547;SDS011;15750;49.600;8.746;2022-09-01T00:39:39;3.50;;;3.20;;
28547;SDS011;15750;49.600;8.746;2022-09-01T00:42:26;4.20;;;2.97;;
28547;SDS011;15750;49.600;8.746;2022-09-01T00:45:15;3.60;;;3.30;;
28547;SDS011;15750;49.600;8.746;2022-09-01T00:48:05;5.38;;;2.97;;
28547;SDS011;15750;49.600;8.746;2022-09-01T00:50:55;3.15;;;2.88;;
28547;SDS011;15750;49.600;8.746;2022-09-01T00:53:42;3.35;;;2.95;;
28547;SDS011;15750;49.600;8.746;2022-09-01T00:56:30;3.35;;;2.58;;
28547;SDS011;15750;49.600;8.746;2022-09-01T00:59:20;2.88;;;2.67;;
28547;SDS011;15750;49.600;8.746;2022-09-01T01:02:10;3.33;;;3.10;;
28547;SDS011;15750;49.600;8.746;2022-09-01T01:04:58;2.80;;;2.60;;
28547;SDS011;15750;49.600;8.746;2022-09-01T01:07:47;2.97;;;2.78;;
28547;SDS011;15750;49.600;8.746;2022-09-01T01:10:36;3.75;;;2.83;;
28547;SDS011;15750;49.600;8.746;2022-09-01T01:13:27;3.10;;;2.90;;
28547;SDS011;15750;49.600;8.746;2022-09-01T01:16:16;3.08;;;2.88;;
28547;SDS011;15750;49.600;8.746;2022-09-01T01:19:05;3.00;;;2.80;;
28547;SDS011;15750;49.600;8.746;2022-09-01T01:22:25;4.20;;;2.97;;
28547;SDS011;15750;49.600;8.746;2022-09-01T01:25:40;3.20;;;3.00;;
28547;SDS011;15750;49.600;8.746;2022-09-01T01:28:31;3.00;;;2.80;;
28547;SDS011;15750;49.600;8.746;2022-09-01T01:31:21;3.08;;;2.83;;
28547;SDS011;15750;49.600;8.746;2022-09-01T01:34:10;5.53;;;2.97;;
28547;SDS011;15750;49.600;8.746;2022-09-01T01:36:59;3.15;;;2.85;;
28547;SDS011;15750;49.600;8.746;2022-09-01T01:39:46;3.30;;;2.75;;
28547;SDS011;15750;49.600;8.746;2022-09-01T01:42:34;2.88;;;2.63;;
28547;SDS011;15750;49.600;8.746;2022-09-01T01:45:23;3.03;;;2.83;;
28547;SDS011;15750;49.600;8.746;2022-09-01T01:48:11;2.92;;;2.72;;
28547;SDS011;15750;49.600;8.746;2022-09-01T01:51:00;3.70;;;3.40;;
28547;SDS011;15750;49.600;8.746;2022-09-01T01:53:49;6.18;;;2.90;;
28547;SDS011;15750;49.600;8.746;2022-09-01T01:56:40;3.03;;;2.80;;
28547;SDS011;15750;49.600;8.746;2022-09-01T01:59:29;3.13;;;2.83;;
28547;SDS011;15750;49.600;8.746;2022-09-01T02:02:18;2.95;;;2.75;;
28547;SDS011;15750;49.600;8.746;2022-09-01T02:05:06;2.88;;;2.67;;
28547;SDS011;15750;49.600;8.746;2022-09-01T02:07:58;3.15;;;2.80;;
28547;SDS011;15750;49.600;8.746;2022-09-01T02:10:49;3.05;;;2.75;;
28547;SDS011;15750;49.600;8.746;2022-09-01T02:13:39;3.58;;;3.28;;
28547;SDS011;15750;49.600;8.746;2022-09-01T02:16:28;3.10;;;2.90;;
28547;SDS011;15750;49.600;8.746;2022-09-01T02:19:19;3.60;;;3.30;;
28547;SDS011;15750;49.600;8.746;2022-09-01T02:22:06;3.20;;;2.90;;
28547;SDS011;15750;49.600;8.746;2022-09-01T02:24:55;3.13;;;2.92;;
28547;SDS011;15750;49.600;8.746;2022-09-01T02:27:42;3.28;;;2.88;;
28547;SDS011;15750;49.600;8.746;2022-09-01T02:30:33;2.95;;;2.75;;
28547;SDS011;15750;49.600;8.746;2022-09-01T02:33:23;3.83;;;3.42;;
28547;SDS011;15750;49.600;8.746;2022-09-01T02:36:14;5.80;;;3.15;;
28547;SDS011;15750;49.600;8.746;2022-09-01T02:39:04;3.60;;;3.30;;
28547;SDS011;15750;49.600;8.746;2022-09-01T02:41:52;3.25;;;2.95;;
28547;SDS011;15750;49.600;8.746;2022-09-01T02:44:43;3.03;;;2.78;;
28547;SDS011;15750;49.600;8.746;2022-09-01T02:47:30;3.63;;;3.30;;
28547;SDS011;15750;49.600;8.746;2022-09-01T02:50:22;3.50;;;3.20;;
28547;SDS011;15750;49.600;8.746;2022-09-01T02:53:11;3.50;;;3.28;;
28547;SDS011;15750;49.600;8.746;2022-09-01T02:56:00;4.45;;;3.83;;
28547;SDS011;15750;49.600;8.746;2022-09-01T02:58:53;3.95;;;3.65;;
28547;SDS011;15750;49.600;8.746;2022-09-01T03:01:42;3.75;;;3.45;;
28547;SDS011;15750;49.600;8.746;2022-09-01T03:04:31;3.67;;;3.38;;
28547;SDS011;15750;49.600;8.746;2022-09-01T03:07:21;4.03;;;3.40;;
28547;SDS011;15750;49.600;8.746;2022-09-01T03:10:10;3.20;;;3.00;;
28547;SDS011;15750;49.600;8.746;2022-09-01T03:12:59;4.40;;;3.28;;
28547;SDS011;15750;49.600;8.746;2022-09-01T03:15:50;3.58;;;3.28;;
28547;SDS011;15750;49.600;8.746;2022-09-01T03:18:38;4.35;;;3.67;;
28547;SDS011;15750;49.600;8.746;2022-09-01T03:21:27;3.70;;;3.40;;
28547;SDS011;15750;49.600;8.746;2022-09-01T03:24:17;3.58;;;3.38;;
28547;SDS011;15750;49.600;8.746;2022-09-01T03:27:07;3.33;;;3.13;;
28547;SDS011;15750;49.600;8.746;2022-09-01T03:29:55;3.45;;;3.15;;
28547;SDS011;15750;49.600;8.746;2022-09-01T03:32:43;3.80;;;3.50;;
28547;SDS011;15750;49.600;8.746;2022-09-01T03:35:32;3.70;;;3.40;;
28547;SDS011;15750;49.600;8.746;2022-09-01T03:38:19;3.95;;;3.17;;
28547;SDS011;15750;49.600;8.746;2022-09-01T03:41:11;3.55;;;3.25;;
28547;SDS011;15750;49.600;8.746;2022-09-01T03:43:58;3.45;;;3.20;;
28547;SDS011;15750;49.600;8.746;2022-09-01T03:46:49;3.88;;;3.35;;
28547;SDS011;15750;49.600;8.746;2022-09-01T03:49:37;3.65;;;3.28;;
28547;SDS011;15750;49.600;8.746;2022-09-01T03:52:27;3.70;;;3.40;;
28547;SDS011;15750;49.600;8.746;2022-09-01T03:55:15;3.20;;;2.92;;
28547;SDS011;15750;49.600;8.746;2022-09-01T03:58:09;4.00;;;3.70;;
28547;SDS011;15750;49.600;8.746;2022-09-01T04:01:03;3.47;;;3.20;;
28547;SDS011;15750;49.600;8.746;2022-09-01T04:03:55;3.25;;;3.05;;
28547;SDS011;15750;49.600;8.746;2022-09-01T04:06:47;3.88;;;3.50;;
28547;SDS011;15750;49.600;8.746;2022-09-01T04:09:35;3.97;;;3.67;;
28547;SDS011;15750;49.600;8.746;2022-09-01T04:12:23;3.65;;;3.35;;
28547;SDS011;15750;49.600;8.746;2022-09-01T04:15:12;3.75;;;3.45;;
28547;SDS011;15750;49.600;8.746;2022-09-01T04:18:02;3.88;;;3.42;;
28547;SDS011;15750;49.600;8.746;2022-09-01T04:20:54;4.47;;;3.50;;
28547;SDS011;15750;49.600;8.746;2022-09-01T04:23:43;3.97;;;3.67;;
28547;SDS011;15750;49.600;8.746;2022-09-01T04:26:31;4.20;;;3.80;;
28547;SDS011;15750;49.600;8.746;2022-09-01T04:29:20;3.88;;;3.58;;
28547;SDS011;15750;49.600;8.746;2022-09-01T04:32:14;5.18;;;3.40;;
28547;SDS011;15750;49.600;8.746;2022-09-01T04:35:08;3.72;;;3.42;;
28547;SDS011;15750;49.600;8.746;2022-09-01T04:38:01;4.13;;;3.83;;
28547;SDS011;15750;49.600;8.746;2022-09-01T04:40:50;3.63;;;3.33;;
28547;SDS011;15750;49.600;8.746;2022-09-01T04:43:37;3.65;;;3.35;;
28547;SDS011;15750;49.600;8.746;2022-09-01T04:46:25;3.88;;;3.35;;
28547;SDS011;15750;49.600;8.746;2022-09-01T04:49:17;4.07;;;3.70;;
28547;SDS011;15750;49.600;8.746;2022-09-01T04:52:10;6.18;;;3.53;;
28547;SDS011;15750;49.600;8.746;2022-09-01T04:54:58;4.13;;;3.83;;
28547;SDS011;15750;49.600;8.746;2022-09-01T04:57:45;3.75;;;3.45;;
28547;SDS011;15750;49.600;8.746;2022-09-01T05:00:34;3.92;;;3.63;;
28547;SDS011;15750;49.600;8.746;2022-09-01T05:03:22;3.95;;;3.55;;
28547;SDS011;15750;49.600;8.746;2022-09-01T05:06:18;3.60;;;3.30;;
28547;SDS011;15750;49.600;8.746;2022-09-01T05:09:15;3.53;;;3.30;;
28547;SDS011;15750;49.600;8.746;2022-09-01T05:12:11;3.97;;;3.65;;
28547;SDS011;15750;49.600;8.746;2022-09-01T05:15:04;3.67;;;3.38;;
28547;SDS011;15750;49.600;8.746;2022-09-01T05:17:53;3.30;;;3.05;;
28547;SDS011;15750;49.600;8.746;2022-09-01T05:20:43;4.00;;;3.60;;
28547;SDS011;15750;49.600;8.746;2022-09-01T05:23:32;3.80;;;3.50;;
28547;SDS011;15750;49.600;8.746;2022-09-01T05:26:21;3.67;;;3.38;;
28547;SDS011;15750;49.600;8.746;2022-09-01T05:29:12;4.03;;;3.35;;
28547;SDS011;15750;49.600;8.746;2022-09-01T05:32:04;3.75;;;3.45;;
28547;SDS011;15750;49.600;8.746;2022-09-01T05:34:55;3.53;;;3.22;;
28547;SDS011;15750;49.600;8.746;2022-09-01T05:37:43;3.80;;;3.50;;
28547;SDS011;15750;49.600;8.746;2022-09-01T05:40:31;3.25;;;3.05;;
28547;SDS011;15750;49.600;8.746;2022-09-01T05:43:21;4.03;;;3.20;;
28547;SDS011;15750;49.600;8.746;2022-09-01T05:46:12;3.78;;;3.47;;
28547;SDS011;15750;49.600;8.746;2022-09-01T05:49:01;3.85;;;3.55;;
28547;SDS011;15750;49.600;8.746;2022-09-01T05:51:54;3.95;;;3.60;;
28547;SDS011;15750;49.600;8.746;2022-09-01T05:54:45;3.83;;;3.53;;
28547;SDS011;15750;49.600;8.746;2022-09-01T05:57:36;3.40;;;3.20;;
28547;SDS011;15750;49.600;8.746;2022-09-01T06:00:24;4.68;;;3.47;;
28547;SDS011;15750;49.600;8.746;2022-09-01T06:03:19;3.50;;;3.20;;
28547;SDS011;15750;49.600;8.746;2022-09-01T06:06:09;3.67;;;3.38;;
28547;SDS011;15750;49.600;8.746;2022-09-01T06:08:57;3.78;;;3.42;;
28547;SDS011;15750;49.600;8.746;2022-09-01T06:11:47;3.75;;;3.45;;
28547;SDS011;15750;49.600;8.746;2022-09-01T06:14:37;4.03;;;3.60;;
28547;SDS011;15750;49.600;8.746;2022-09-01T06:17:24;4.05;;;3.42;;
28547;SDS011;15750;49.600;8.746;2022-09-01T06:20:19;3.45;;;3.15;;
28547;SDS011;15750;49.600;8.746;2022-09-01T06:23:07;3.85;;;3.55;;
28547;SDS011;15750;49.600;8.746;2022-09-01T06:25:59;5.40;;;3.65;;
28547;SDS011;15750;49.600;8.746;2022-09-01T06:28:48;3.55;;;3.25;;
28547;SDS011;15750;49.600;8.746;2022-09-01T06:31:40;3.88;;;3.58;;
28547;SDS011;15750;49.600;8.746;2022-09-01T06:34:30;3.63;;;3.40;;
28547;SDS011;15750;49.600;8.746;2022-09-01T06:37:18;3.55;;;3.25;;
28547;SDS011;15750;49.600;8.746;2022-09-01T06:40:12;3.30;;;3.10;;
28547;SDS011;15750;49.600;8.746;2022-09-01T06:43:02;3.67;;;3.35;;
28547;SDS011;15750;49.600;8.746;2022-09-01T06:45:54;3.50;;;3.30;;
28547;SDS011;15750;49.600;8.746;2022-09-01T06:48:45;3.60;;;3.33;;
28547;SDS011;15750;49.600;8.746;2022-09-01T06:51:33;4.40;;;3.25;;
28547;SDS011;15750;49.600;8.746;2022-09-01T06:54:21;3.20;;;3.00;;
28547;SDS011;15750;49.600;8.746;2022-09-01T06:57:11;4.03;;;3.35;;
28547;SDS011;15750;49.600;8.746;2022-09-01T07:00:18;3.08;;;2.88;;
28547;SDS011;15750;49.600;8.746;2022-09-01T07:03:07;3.70;;;3.42;;
28547;SDS011;15750;49.600;8.746;2022-09-01T07:06:09;3.60;;;3.30;;
28547;SDS011;15750;49.600;8.746;2022-09-01T07:09:43;4.15;;;3.22;;
28547;SDS011;15750;49.600;8.746;2022-09-01T07:13:02;3.78;;;3.40;;
28547;SDS011;15750;49.600;8.746;2022-09-01T07:15:52;3.35;;;3.15;;
28547;SDS011;15750;49.600;8.746;2022-09-01T07:19:01;3.17;;;2.97;;
28547;SDS011;15750;49.600;8.746;2022-09-01T07:21:53;3.15;;;2.95;;
28547;SDS011;15750;49.600;8.746;2022-09-01T07:25:05;3.40;;;3.08;;
28547;SDS011;15750;49.600;8.746;2022-09-01T07:28:07;3.53;;;3.25;;
28547;SDS011;15750;49.600;8.746;2022-09-01T07:31:00;3.50;;;3.22;;
28547;SDS011;15750;49.600;8.746;2022-09-01T07:34:11;3.92;;;3.15;;
28547;SDS011;15750;49.600;8.746;2022-09-01T07:37:24;3.50;;;3.20;;
28547;SDS011;15750;49.600;8.746;2022-09-01T07:40:32;4.10;;;3.70;;
28547;SDS011;15750;49.600;8.746;2022-09-01T07:44:01;4.18;;;3.88;;
28547;SDS011;15750;49.600;8.746;2022-09-01T07:47:14;3.75;;;3.45;;
28547;SDS011;15750;49.600;8.746;2022-09-01T07:50:21;3.97;;;3.53;;
28547;SDS011;15750;49.600;8.746;2022-09-01T07:53:33;3.95;;;3.65;;
28547;SDS011;15750;49.600;8.746;2022-09-01T07:56:24;3.58;;;3.38;;
28547;SDS011;15750;49.600;8.746;2022-09-01T07:59:14;4.00;;;3.55;;
28547;SDS011;15750;49.600;8.746;2022-09-01T08:02:11;4.25;;;3.85;;
28547;SDS011;15750;49.600;8.746;2022-09-01T08:05:00;3.50;;;3.20;;
28547;SDS011;15750;49.600;8.746;2022-09-01T08:07:48;4.35;;;4.03;;
28547;SDS011;15750;49.600;8.746;2022-09-01T08:10:38;3.58;;;3.28;;
28547;SDS011;15750;49.600;8.746;2022-09-01T08:13:27;3.70;;;3.40;;
28547;SDS011;15750;49.600;8.746;2022-09-01T08:16:14;3.60;;;3.30;;
28547;SDS011;15750;49.600;8.746;2022-09-01T08:19:03;4.10;;;3.53;;
28547;SDS011;15750;49.600;8.746;2022-09-01T08:22:21;3.72;;;3.38;;
28547;SDS011;15750;49.600;8.746;2022-09-01T08:25:30;4.05;;;3.75;;
28547;SDS011;15750;49.600;8.746;2022-09-01T08:28:20;4.53;;;4.13;;
28547;SDS011;15750;49.600;8.746;2022-09-01T08:31:13;4.20;;;3.85;;
28547;SDS011;15750;49.600;8.746;2022-09-01T08:34:05;4.25;;;3.85;;
28547;SDS011;15750;49.600;8.746;2022-09-01T08:36:52;4.53;;;4.13;;
28547;SDS011;15750;49.600;8.746;2022-09-01T08:39:40;3.80;;;3.50;;
28547;SDS011;15750;49.600;8.746;2022-09-01T08:42:33;3.78;;;3.47;;
28547;SDS011;15750;49.600;8.746;2022-09-01T08:45:35;4.10;;;3.50;;
28547;SDS011;15750;49.600;8.746;2022-09-01T08:48:30;3.55;;;3.25;;
28547;SDS011;15750;49.600;8.746;2022-09-01T08:51:51;4.18;;;3.78;;
28547;SDS011;15750;49.600;8.746;2022-09-01T08:54:46;3.35;;;3.15;;
28547;SDS011;15750;49.600;8.746;2022-09-01T08:57:37;4.07;;;3.78;;
28547;SDS011;15750;49.600;8.746;2022-09-01T09:00:40;5.65;;;3.95;;
28547;SDS011;15750;49.600;8.746;2022-09-01T09:03:38;3.83;;;3.40;;
28547;SDS011;15750;49.600;8.746;2022-09-01T09:06:32;3.78;;;3.47;;
28547;SDS011;15750;49.600;8.746;2022-09-01T09:09:29;4.03;;;3.70;;
28547;SDS011;15750;49.600;8.746;2022-09-01T09:12:28;3.75;;;3.45;;
28547;SDS011;15750;49.600;8.746;2022-09-01T09:15:37;3.20;;;3.00;;
28547;SDS011;15750;49.600;8.746;2022-09-01T09:18:32;4.32;;;3.58;;
28547;SDS011;15750;49.600;8.746;2022-09-01T09:21:40;3.65;;;3.38;;
28547;SDS011;15750;49.600;8.746;2022-09-01T09:24:30;5.20;;;3.45;;
28547;SDS011;15750;49.600;8.746;2022-09-01T09:27:32;3.88;;;3.58;;
28547;SDS011;15750;49.600;8.746;2022-09-01T09:30:23;3.63;;;3.33;;
28547;SDS011;15750;49.600;8.746;2022-09-01T09:33:31;7.03;;;3.55;;
28547;SDS011;15750;49.600;8.746;2022-09-01T09:36:36;3.85;;;3.42;;
28547;SDS011;15750;49.600;8.746;2022-09-01T09:39:23;4.20;;;3.80;;
28547;SDS011;15750;49.600;8.746;2022-09-01T09:42:14;3.80;;;3.50;;
28547;SDS011;15750;49.600;8.746;2022-09-01T09:45:01;3.75;;;3.28;;
28547;SDS011;15750;49.600;8.746;2022-09-01T09:47:49;4.43;;;3.70;;
28547;SDS011;15750;49.600;8.746;2022-09-01T09:50:39;6.30;;;3.58;;
28547;SDS011;15750;49.600;8.746;2022-09-01T09:53:29;3.50;;;3.25;;
28547;SDS011;15750;49.600;8.746;2022-09-01T09:56:18;3.67;;;3.38;;
28547;SDS011;15750;49.600;8.746;2022-09-01T09:59:17;3.85;;;3.55;;
28547;SDS011;15750;49.600;8.746;2022-09-01T10:02:30;4.38;;;3.50;;
28547;SDS011;15750;49.600;8.746;2022-09-01T10:05:23;3.65;;;3.38;;
28547;SDS011;15750;49.600;8.746;2022-09-01T10:11:30;3.58;;;3.28;;
28547;SDS011;15750;49.600;8.746;2022-09-01T10:14:26;3.50;;;3.20;;
28547;SDS011;15750;49.600;8.746;2022-09-01T10:17:37;5.18;;;3.38;;
28547;SDS011;15750;49.600;8.746;2022-09-01T10:20:28;3.50;;;3.20;;
28547;SDS011;15750;49.600;8.746;2022-09-01T10:23:16;3.42;;;3.13;;
28547;SDS011;15750;49.600;8.746;2022-09-01T10:26:06;4.75;;;3.60;;
28547;SDS011;15750;49.600;8.746;2022-09-01T10:29:05;3.90;;;3.28;;
28547;SDS011;15750;49.600;8.746;2022-09-01T10:32:00;3.92;;;3.13;;
28547;SDS011;15750;49.600;8.746;2022-09-01T10:35:13;3.05;;;2.85;;
28547;SDS011;15750;49.600;8.746;2022-09-01T10:38:05;3.22;;;2.88;;
28547;SDS011;15750;49.600;8.746;2022-09-01T10:40:56;2.97;;;2.78;;
28547;SDS011;15750;49.600;8.746;2022-09-01T10:44:08;4.20;;;3.15;;
28547;SDS011;15750;49.600;8.746;2022-09-01T10:46:57;4.15;;;3.20;;
28547;SDS011;15750;49.600;8.746;2022-09-01T10:55:59;3.08;;;2.88;;
28547;SDS011;15750;49.600;8.746;2022-09-01T10:59:09;3.65;;;3.10;;
28547;SDS011;15750;49.600;8.746;2022-09-01T11:02:27;3.53;;;3.22;;
28547;SDS011;15750;49.600;8.746;2022-09-01T11:05:20;3.67;;;3.38;;
28547;SDS011;15750;49.600;8.746;2022-09-01T11:08:20;4.05;;;3.40;;
28547;SDS011;15750;49.600;8.746;2022-09-01T11:11:13;3.70;;;3.40;;
28547;SDS011;15750;49.600;8.746;2022-09-01T11:14:18;3.63;;;3.17;;
28547;SDS011;15750;49.600;8.746;2022-09-01T11:17:10;3.75;;;3.40;;
28547;SDS011;15750;49.600;8.746;2022-09-01T11:20:08;4.20;;;3.35;;
28547;SDS011;15750;49.600;8.746;2022-09-01T11:22:59;4.20;;;3.15;;
28547;SDS011;15750;49.600;8.746;2022-09-01T11:25:50;3.35;;;3.15;;
28547;SDS011;15750;49.600;8.746;2022-09-01T11:28:59;3.70;;;3.40;;
28547;SDS011;15750;49.600;8.746;2022-09-01T11:31:48;3.25;;;3.05;;
28547;SDS011;15750;49.600;8.746;2022-09-01T11:34:39;3.33;;;3.00;;
28547;SDS011;15750;49.600;8.746;2022-09-01T11:37:28;3.83;;;3.53;;
28547;SDS011;15750;49.600;8.746;2022-09-01T11:40:18;3.75;;;3.40;;
28547;SDS011;15750;49.600;8.746;2022-09-01T11:43:08;3.42;;;3.13;;
28547;SDS011;15750;49.600;8.746;2022-09-01T11:46:04;3.38;;;3.08;;
28547;SDS011;15750;49.600;8.746;2022-09-01T11:49:04;3.70;;;3.40;;
28547;SDS011;15750;49.600;8.746;2022-09-01T11:52:12;3.60;;;3.30;;
28547;SDS011;15750;49.600;8.746;2022-09-01T11:55:02;3.58;;;3.28;;
28547;SDS011;15750;49.600;8.746;2022-09-01T11:57:52;3.80;;;3.50;;
28547;SDS011;15750;49.600;8.746;2022-09-01T12:00:40;3.45;;;3.25;;
28547;SDS011;15750;49.600;8.746;2022-09-01T12:03:28;3.25;;;3.00;;
28547;SDS011;15750;49.600;8.746;2022-09-01T12:06:01;3.25;;;3.05;;
28547;SDS011;15750;49.600;8.746;2022-09-01T12:08:32;3.38;;;3.17;;
28547;SDS011;15750;49.600;8.746;2022-09-01T12:11:04;3.72;;;3.42;;
28547;SDS011;15750;49.600;8.746;2022-09-01T12:13:35;3.50;;;3.20;;
28547;SDS011;15750;49.600;8.746;2022-09-01T12:16:06;2.95;;;2.75;;
28547;SDS011;15750;49.600;8.746;2022-09-01T12:18:45;3.80;;;3.50;;
28547;SDS011;15750;49.600;8.746;2022-09-01T12:21:19;4.03;;;3.72;;
28547;SDS011;15750;49.600;8.746;2022-09-01T12:23:51;3.60;;;3.30;;
28547;SDS011;15750;49.600;8.746;2022-09-01T12:26:22;3.97;;;3.42;;
28547;SDS011;15750;49.600;8.746;2022-09-01T12:28:53;3.45;;;3.17;;
28547;SDS011;15750;49.600;8.746;2022-09-01T12:31:24;3.65;;;3.38;;
28547;SDS011;15750;49.600;8.746;2022-09-01T12:33:54;3.88;;;3.58;;
28547;SDS011;15750;49.600;8.746;2022-09-01T12:36:26;3.78;;;3.47;;
28547;SDS011;15750;49.600;8.746;2022-09-01T12:39:03;3.80;;;3.50;;
28547;SDS011;15750;49.600;8.746;2022-09-01T12:41:59;3.35;;;3.15;;
28547;SDS011;15750;49.600;8.746;2022-09-01T12:44:42;3.60;;;3.38;;
28547;SDS011;15750;49.600;8.746;2022-09-01T12:50:35;3.30;;;3.10;;
28547;SDS011;15750;49.600;8.746;2022-09-01T12:53:16;3.40;;;3.08;;
28547;SDS011;15750;49.600;8.746;2022-09-01T12:58:55;3.55;;;3.20;;
28547;SDS011;15750;49.600;8.746;2022-09-01T13:01:41;3.42;;;3.17;;
28547;SDS011;15750;49.600;8.746;2022-09-01T13:04:11;3.90;;;3.60;;
28547;SDS011;15750;49.600;8.746;2022-09-01T13:06:54;2.90;;;2.70;;
28547;SDS011;15750;49.600;8.746;2022-09-01T13:09:29;5.10;;;3.50;;
28547;SDS011;15750;49.600;8.746;2022-09-01T13:12:08;3.88;;;3.60;;
28547;SDS011;15750;49.600;8.746;2022-09-01T13:14:39;4.13;;;3.38;;
28547;SDS011;15750;49.600;8.746;2022-09-01T13:17:08;3.20;;;3.00;;
28547;SDS011;15750;49.600;8.746;2022-09-01T13:19:40;3.10;;;2.90;;
28547;SDS011;15750;49.600;8.746;2022-09-01T13:22:09;3.10;;;2.90;;
28547;SDS011;15750;49.600;8.746;2022-09-01T13:24:39;3.17;;;2.97;;
28547;SDS011;15750;49.600;8.746;2022-09-01T13:27:07;4.75;;;3.13;;
28547;SDS011;15750;49.600;8.746;2022-09-01T13:29:47;3.50;;;3.20;;
28547;SDS011;15750;49.600;8.746;2022-09-01T13:32:16;4.55;;;3.38;;
28547;SDS011;15750;49.600;8.746;2022-09-01T13:34:48;3.33;;;3.03;;
28547;SDS011;15750;49.600;8.746;2022-09-01T13:37:19;3.20;;;3.00;;
28547;SDS011;15750;49.600;8.746;2022-09-01T13:39:50;3.50;;;3.20;;
28547;SDS011;15750;49.600;8.746;2022-09-01T13:42:19;3.80;;;3.28;;
28547;SDS011;15750;49.600;8.746;2022-09-01T13:44:54;3.20;;;3.00;;
28547;SDS011;15750;49.600;8.746;2022-09-01T13:47:22;3.67;;;3.38;;
28547;SDS011;15750;49.600;8.746;2022-09-01T13:49:56;3.50;;;3.25;;
28547;SDS011;15750;49.600;8.746;2022-09-01T13:52:36;3.47;;;3.17;;
28547;SDS011;15750;49.600;8.746;2022-09-01T13:55:09;3.70;;;3.35;;
28547;SDS011;15750;49.600;8.746;2022-09-01T13:57:40;3.35;;;3.15;;
28547;SDS011;15750;49.600;8.746;2022-09-01T14:00:10;3.58;;;3.33;;
28547;SDS011;15750;49.600;8.746;2022-09-01T14:02:43;3.88;;;3.35;;
28547;SDS011;15750;49.600;8.746;2022-09-01T14:05:16;3.22;;;3.03;;
28547;SDS011;15750;49.600;8.746;2022-09-01T14:07:47;3.55;;;3.25;;
28547;SDS011;15750;49.600;8.746;2022-09-01T14:10:18;3.20;;;2.92;;
28547;SDS011;15750;49.600;8.746;2022-09-01T14:12:49;3.65;;;3.28;;
28547;SDS011;15750;49.600;8.746;2022-09-01T14:15:19;3.38;;;3.08;;
28547;SDS011;15750;49.600;8.746;2022-09-01T14:17:53;3.08;;;2.88;;
28547;SDS011;15750;49.600;8.746;2022-09-01T14:20:24;3.25;;;2.97;;
28547;SDS011;15750;49.600;8.746;2022-09-01T14:22:58;3.58;;;3.28;;
28547;SDS011;15750;49.600;8.746;2022-09-01T14:25:29;3.30;;;2.97;;
28547;SDS011;15750;49.600;8.746;2022-09-01T14:27:59;3.58;;;3.28;;
28547;SDS011;15750;49.600;8.746;2022-09-01T14:30:30;3.30;;;2.97;;
28547;SDS011;15750;49.600;8.746;2022-09-01T14:33:00;2.80;;;2.60;;
28547;SDS011;15750;49.600;8.746;2022-09-01T14:35:29;3.08;;;2.80;;
28547;SDS011;15750;49.600;8.746;2022-09-01T14:38:00;4.68;;;2.97;;
28547;SDS011;15750;49.600;8.746;2022-09-01T14:40:32;5.60;;;2.90;;
28547;SDS011;15750;49.600;8.746;2022-09-01T14:43:02;4.45;;;2.85;;
28547;SDS011;15750;49.600;8.746;2022-09-01T14:45:32;3.00;;;2.80;;
28547;SDS011;15750;49.600;8.746;2022-09-01T14:48:02;3.75;;;3.45;;
28547;SDS011;15750;49.600;8.746;2022-09-01T14:50:32;2.60;;;2.45;;
28547;SDS011;15750;49.600;8.746;2022-09-01T14:53:01;3.00;;;2.80;;
28547;SDS011;15750;49.600;8.746;2022-09-01T14:55:31;2.80;;;2.60;;
28547;SDS011;15750;49.600;8.746;2022-09-01T14:58:00;3.30;;;3.00;;
28547;SDS011;15750;49.600;8.746;2022-09-01T15:00:30;3.40;;;3.20;;
28547;SDS011;15750;49.600;8.746;2022-09-01T15:03:02;3.42;;;2.88;;
28547;SDS011;15750;49.600;8.746;2022-09-01T15:05:30;2.97;;;2.78;;
28547;SDS011;15750;49.600;8.746;2022-09-01T15:08:05;3.40;;;3.10;;
28547;SDS011;15750;49.600;8.746;2022-09-01T15:10:44;3.13;;;2.92;;
28547;SDS011;15750;49.600;8.746;2022-09-01T15:13:13;2.88;;;2.67;;
28547;SDS011;15750;49.600;8.746;2022-09-01T15:15:42;3.13;;;2.92;;
28547;SDS011;15750;49.600;8.746;2022-09-01T15:18:11;4.43;;;3.10;;
28547;SDS011;15750;49.600;8.746;2022-09-01T15:20:40;3.30;;;3.00;;
28547;SDS011;15750;49.600;8.746;2022-09-01T15:23:12;3.50;;;2.70;;
28547;SDS011;15750;49.600;8.746;2022-09-01T15:25:45;3.30;;;3.10;;
28547;SDS011;15750;49.600;8.746;2022-09-01T15:28:14;3.22;;;2.60;;
28547;SDS011;15750;49.600;8.746;2022-09-01T15:30:43;3.00;;;2.80;;
28547;SDS011;15750;49.600;8.746;2022-09-01T15:33:12;3.28;;;3.00;;
28547;SDS011;15750;49.600;8.746;2022-09-01T15:35:42;3.33;;;3.10;;
28547;SDS011;15750;49.600;8.746;2022-09-01T15:38:12;3.65;;;2.65;;
28547;SDS011;15750;49.600;8.746;2022-09-01T15:40:46;3.15;;;2.90;;
28547;SDS011;15750;49.600;8.746;2022-09-01T15:43:24;3.20;;;3.00;;
28547;SDS011;15750;49.600;8.746;2022-09-01T15:45:55;4.05;;;3.00;;
28547;SDS011;15750;49.600;8.746;2022-09-01T15:48:25;3.00;;;2.80;;
28547;SDS011;15750;49.600;8.746;2022-09-01T15:51:00;3.70;;;2.95;;
28547;SDS011;15750;49.600;8.746;2022-09-01T15:53:57;2.97;;;2.78;;
28547;SDS011;15750;49.600;8.746;2022-09-01T15:56:29;2.97;;;2.78;;
28547;SDS011;15750;49.600;8.746;2022-09-01T15:58:58;3.00;;;2.80;;
28547;SDS011;15750;49.600;8.746;2022-09-01T16:01:29;2.92;;;2.72;;
28547;SDS011;15750;49.600;8.746;2022-09-01T16:04:02;2.70;;;2.50;;
28547;SDS011;15750;49.600;8.746;2022-09-01T16:06:32;2.83;;;2.63;;
28547;SDS011;15750;49.600;8.746;2022-09-01T16:09:02;2.78;;;2.58;;
28547;SDS011;15750;49.600;8.746;2022-09-01T16:11:33;4.07;;;3.03;;
28547;SDS011;15750;49.600;8.746;2022-09-01T16:14:02;3.05;;;2.72;;
28547;SDS011;15750;49.600;8.746;2022-09-01T16:16:34;2.90;;;2.70;;
28547;SDS011;15750;49.600;8.746;2022-09-01T16:19:14;3.00;;;2.70;;
28547;SDS011;15750;49.600;8.746;2022-09-01T16:21:58;2.80;;;2.60;;
28547;SDS011;15750;49.600;8.746;2022-09-01T16:24:38;2.80;;;2.60;;
28547;SDS011;15750;49.600;8.746;2022-09-01T16:27:13;2.90;;;2.67;;
28547;SDS011;15750;49.600;8.746;2022-09-01T16:29:46;3.10;;;2.90;;
28547;SDS011;15750;49.600;8.746;2022-09-01T16:32:17;2.78;;;2.58;;
28547;SDS011;15750;49.600;8.746;2022-09-01T16:34:49;3.00;;;2.80;;
28547;SDS011;15750;49.600;8.746;2022-09-01T16:37:25;2.88;;;2.60;;
28547;SDS011;15750;49.600;8.746;2022-09-01T16:40:09;2.97;;;2.78;;
28547;SDS011;15750;49.600;8.746;2022-09-01T16:42:51;2.97;;;2.78;;
28547;SDS011;15750;49.600;8.746;2022-09-01T16:45:32;2.78;;;2.60;;
28547;SDS011;15750;49.600;8.746;2022-09-01T16:48:13;3.92;;;2.80;;
28547;SDS011;15750;49.600;8.746;2022-09-01T16:50:50;2.95;;;2.75;;
28547;SDS011;15750;49.600;8.746;2022-09-01T16:53:34;5.15;;;2.85;;
28547;SDS011;15750;49.600;8.746;2022-09-01T16:56:29;2.85;;;2.53;;
28547;SDS011;15750;49.600;8.746;2022-09-01T16:59:05;2.83;;;2.60;;
28547;SDS011;15750;49.600;8.746;2022-09-01T17:01:47;2.45;;;2.30;;